sensor_id;sensor_type;location;lat;lon;timestamp;P1;durP1;ratioP1;P2;durP2;ratioP2
58472;SDS011;44775;51.564;5.460;2022-10-31T00:01:59;23.83;;;14.25;;
58472;SDS011;44775;51.564;5.460;2022-10-31T00:04:25;21.42;;;13.52;;
58472;SDS011;44775;51.564;5.460;2022-10-31T00:06:50;25.63;;;13.55;;
58472;SDS011;44775;51.564;5.460;2022-10-31T00:09:16;27.20;;;15.35;;
58472;SDS011;44775;51.564;5.460;2022-10-31T00:11:41;24.13;;;14.10;;
58472;SDS011;44775;51.564;5.460;2022-10-31T00:14:07;23.63;;;14.18;;
58472;SDS011;44775;51.564;5.460;2022-10-31T00:16:32;26.48;;;14.77;;
58472;SDS011;44775;51.564;5.460;2022-10-31T00:19:02;24.55;;;15.00;;
58472;SDS011;44775;51.564;5.460;2022-10-31T00:21:29;28.30;;;14.60;;
58472;SDS011;44775;51.564;5.460;2022-10-31T00:23:56;25.95;;;15.63;;
58472;SDS011;44775;51.564;5.460;2022-10-31T00:26:22;28.30;;;15.85;;
58472;SDS011;44775;51.564;5.460;2022-10-31T00:28:48;24.92;;;15.23;;
58472;SDS011;44775;51.564;5.460;2022-10-31T00:31:14;29.83;;;15.82;;
58472;SDS011;44775;51.564;5.460;2022-10-31T00:33:40;28.48;;;16.27;;
58472;SDS011;44775;51.564;5.460;2022-10-31T00:36:06;29.35;;;16.55;;
58472;SDS011;44775;51.564;5.460;2022-10-31T00:38:32;28.35;;;16.63;;
58472;SDS011;44775;51.564;5.460;2022-10-31T00:40:58;25.23;;;15.00;;
58472;SDS011;44775;51.564;5.460;2022-10-31T00:43:23;29.00;;;17.30;;
58472;SDS011;44775;51.564;5.460;2022-10-31T00:45:49;29.20;;;16.10;;
58472;SDS011;44775;51.564;5.460;2022-10-31T00:48:15;26.15;;;16.50;;
58472;SDS011;44775;51.564;5.460;2022-10-31T00:50:40;33.13;;;16.48;;
58472;SDS011;44775;51.564;5.460;2022-10-31T00:53:06;30.65;;;16.50;;
58472;SDS011;44775;51.564;5.460;2022-10-31T00:55:32;26.20;;;16.83;;
58472;SDS011;44775;51.564;5.460;2022-10-31T00:57:58;26.58;;;16.80;;
58472;SDS011;44775;51.564;5.460;2022-10-31T01:00:23;26.42;;;15.70;;
58472;SDS011;44775;51.564;5.460;2022-10-31T01:02:48;25.85;;;16.60;;
58472;SDS011;44775;51.564;5.460;2022-10-31T01:05:14;30.33;;;16.70;;
58472;SDS011;44775;51.564;5.460;2022-10-31T01:07:40;26.30;;;16.50;;
58472;SDS011;44775;51.564;5.460;2022-10-31T01:10:06;25.48;;;15.85;;
58472;SDS011;44775;51.564;5.460;2022-10-31T01:12:45;31.88;;;17.10;;
58472;SDS011;44775;51.564;5.460;2022-10-31T01:15:13;29.27;;;16.40;;
58472;SDS011;44775;51.564;5.460;2022-10-31T01:17:40;33.42;;;17.10;;
58472;SDS011;44775;51.564;5.460;2022-10-31T01:20:06;24.33;;;15.77;;
58472;SDS011;44775;51.564;5.460;2022-10-31T01:22:33;25.27;;;16.85;;
58472;SDS011;44775;51.564;5.460;2022-10-31T01:24:59;26.75;;;16.27;;
58472;SDS011;44775;51.564;5.460;2022-10-31T01:27:25;26.52;;;15.27;;
58472;SDS011;44775;51.564;5.460;2022-10-31T01:29:51;26.70;;;16.42;;
58472;SDS011;44775;51.564;5.460;2022-10-31T01:32:16;27.40;;;15.48;;
58472;SDS011;44775;51.564;5.460;2022-10-31T01:34:42;26.25;;;15.98;;
58472;SDS011;44775;51.564;5.460;2022-10-31T01:37:07;24.88;;;15.93;;
58472;SDS011;44775;51.564;5.460;2022-10-31T01:39:32;24.20;;;15.13;;
58472;SDS011;44775;51.564;5.460;2022-10-31T01:41:58;25.80;;;16.60;;
58472;SDS011;44775;51.564;5.460;2022-10-31T01:47:11;28.02;;;17.15;;
58472;SDS011;44775;51.564;5.460;2022-10-31T01:52:12;29.42;;;16.85;;
58472;SDS011;44775;51.564;5.460;2022-10-31T01:54:42;30.42;;;17.38;;
58472;SDS011;44775;51.564;5.460;2022-10-31T01:57:13;26.52;;;16.63;;
58472;SDS011;44775;51.564;5.460;2022-10-31T01:59:41;29.05;;;16.90;;
58472;SDS011;44775;51.564;5.460;2022-10-31T02:02:12;27.20;;;17.02;;
58472;SDS011;44775;51.564;5.460;2022-10-31T02:04:39;29.50;;;16.75;;
58472;SDS011;44775;51.564;5.460;2022-10-31T02:07:16;27.98;;;17.48;;
58472;SDS011;44775;51.564;5.460;2022-10-31T02:09:49;25.23;;;17.33;;
58472;SDS011;44775;51.564;5.460;2022-10-31T02:12:16;28.98;;;16.98;;
58472;SDS011;44775;51.564;5.460;2022-10-31T02:14:43;27.33;;;17.02;;
58472;SDS011;44775;51.564;5.460;2022-10-31T02:17:08;36.22;;;17.48;;
58472;SDS011;44775;51.564;5.460;2022-10-31T02:19:36;29.10;;;18.83;;
58472;SDS011;44775;51.564;5.460;2022-10-31T02:31:16;35.63;;;19.75;;
58472;SDS011;44775;51.564;5.460;2022-10-31T02:33:55;38.38;;;19.67;;
58472;SDS011;44775;51.564;5.460;2022-10-31T02:36:46;31.60;;;17.98;;
58472;SDS011;44775;51.564;5.460;2022-10-31T02:39:37;25.77;;;17.17;;
58472;SDS011;44775;51.564;5.460;2022-10-31T02:47:33;36.55;;;20.58;;
58472;SDS011;44775;51.564;5.460;2022-10-31T02:50:04;41.20;;;21.50;;
58472;SDS011;44775;51.564;5.460;2022-10-31T02:52:34;38.00;;;20.73;;
58472;SDS011;44775;51.564;5.460;2022-10-31T02:55:11;34.10;;;19.65;;
58472;SDS011;44775;51.564;5.460;2022-10-31T02:58:08;35.78;;;19.67;;
58472;SDS011;44775;51.564;5.460;2022-10-31T03:00:41;35.90;;;20.17;;
58472;SDS011;44775;51.564;5.460;2022-10-31T03:09:24;30.23;;;19.48;;
58472;SDS011;44775;51.564;5.460;2022-10-31T03:14:42;34.60;;;20.15;;
58472;SDS011;44775;51.564;5.460;2022-10-31T03:17:19;32.47;;;19.73;;
58472;SDS011;44775;51.564;5.460;2022-10-31T03:19:51;32.95;;;19.08;;
58472;SDS011;44775;51.564;5.460;2022-10-31T03:22:22;34.30;;;19.85;;
58472;SDS011;44775;51.564;5.460;2022-10-31T03:24:50;33.35;;;20.30;;
58472;SDS011;44775;51.564;5.460;2022-10-31T03:27:24;33.25;;;20.13;;
58472;SDS011;44775;51.564;5.460;2022-10-31T03:29:52;29.52;;;19.00;;
58472;SDS011;44775;51.564;5.460;2022-10-31T03:34:53;32.95;;;19.58;;
58472;SDS011;44775;51.564;5.460;2022-10-31T03:37:22;35.20;;;20.92;;
58472;SDS011;44775;51.564;5.460;2022-10-31T03:39:52;32.70;;;19.48;;
58472;SDS011;44775;51.564;5.460;2022-10-31T03:42:21;36.38;;;19.63;;
58472;SDS011;44775;51.564;5.460;2022-10-31T03:44:53;33.72;;;18.70;;
58472;SDS011;44775;51.564;5.460;2022-10-31T03:47:26;28.55;;;17.30;;
58472;SDS011;44775;51.564;5.460;2022-10-31T03:49:51;34.22;;;19.50;;
58472;SDS011;44775;51.564;5.460;2022-10-31T04:00:17;40.13;;;19.63;;
58472;SDS011;44775;51.564;5.460;2022-10-31T04:02:48;36.85;;;20.60;;
58472;SDS011;44775;51.564;5.460;2022-10-31T04:05:20;37.55;;;21.00;;
58472;SDS011;44775;51.564;5.460;2022-10-31T04:07:47;41.95;;;21.50;;
58472;SDS011;44775;51.564;5.460;2022-10-31T04:10:17;42.40;;;22.98;;
58472;SDS011;44775;51.564;5.460;2022-10-31T04:12:44;37.72;;;21.10;;
58472;SDS011;44775;51.564;5.460;2022-10-31T04:15:17;50.30;;;22.88;;
58472;SDS011;44775;51.564;5.460;2022-10-31T04:17:45;43.00;;;22.67;;
58472;SDS011;44775;51.564;5.460;2022-10-31T04:20:15;43.28;;;21.98;;
58472;SDS011;44775;51.564;5.460;2022-10-31T04:22:42;41.85;;;22.20;;
58472;SDS011;44775;51.564;5.460;2022-10-31T04:25:07;40.45;;;22.30;;
58472;SDS011;44775;51.564;5.460;2022-10-31T04:27:33;37.92;;;20.63;;
58472;SDS011;44775;51.564;5.460;2022-10-31T04:29:58;40.53;;;22.55;;
58472;SDS011;44775;51.564;5.460;2022-10-31T04:32:24;44.25;;;23.25;;
58472;SDS011;44775;51.564;5.460;2022-10-31T04:34:50;47.03;;;23.10;;
58472;SDS011;44775;51.564;5.460;2022-10-31T04:37:15;48.63;;;24.23;;
58472;SDS011;44775;51.564;5.460;2022-10-31T04:39:41;51.17;;;25.95;;
58472;SDS011;44775;51.564;5.460;2022-10-31T04:42:06;69.68;;;27.05;;
58472;SDS011;44775;51.564;5.460;2022-10-31T04:44:31;57.83;;;27.02;;
58472;SDS011;44775;51.564;5.460;2022-10-31T04:46:57;64.47;;;27.95;;
58472;SDS011;44775;51.564;5.460;2022-10-31T04:49:22;55.90;;;26.85;;
58472;SDS011;44775;51.564;5.460;2022-10-31T04:51:48;63.80;;;28.80;;
58472;SDS011;44775;51.564;5.460;2022-10-31T04:54:13;63.35;;;28.67;;
58472;SDS011;44775;51.564;5.460;2022-10-31T04:56:38;68.32;;;29.13;;
58472;SDS011;44775;51.564;5.460;2022-10-31T04:59:04;61.92;;;29.60;;
58472;SDS011;44775;51.564;5.460;2022-10-31T05:01:29;60.33;;;29.15;;
58472;SDS011;44775;51.564;5.460;2022-10-31T05:03:55;61.67;;;28.10;;
58472;SDS011;44775;51.564;5.460;2022-10-31T05:06:20;71.40;;;31.13;;
58472;SDS011;44775;51.564;5.460;2022-10-31T05:08:45;72.50;;;31.65;;
58472;SDS011;44775;51.564;5.460;2022-10-31T05:11:11;72.82;;;30.60;;
58472;SDS011;44775;51.564;5.460;2022-10-31T05:13:36;75.60;;;33.75;;
58472;SDS011;44775;51.564;5.460;2022-10-31T05:16:02;69.88;;;32.10;;
58472;SDS011;44775;51.564;5.460;2022-10-31T05:18:28;63.40;;;30.80;;
58472;SDS011;44775;51.564;5.460;2022-10-31T05:20:53;65.85;;;30.52;;
58472;SDS011;44775;51.564;5.460;2022-10-31T05:23:19;70.20;;;31.45;;
58472;SDS011;44775;51.564;5.460;2022-10-31T05:25:44;81.20;;;32.50;;
58472;SDS011;44775;51.564;5.460;2022-10-31T05:28:10;71.03;;;32.80;;
58472;SDS011;44775;51.564;5.460;2022-10-31T05:30:35;74.50;;;32.33;;
58472;SDS011;44775;51.564;5.460;2022-10-31T05:33:01;78.50;;;35.58;;
58472;SDS011;44775;51.564;5.460;2022-10-31T05:35:28;68.93;;;32.85;;
58472;SDS011;44775;51.564;5.460;2022-10-31T05:37:55;76.03;;;33.72;;
58472;SDS011;44775;51.564;5.460;2022-10-31T05:40:22;73.55;;;32.90;;
58472;SDS011;44775;51.564;5.460;2022-10-31T05:42:50;84.47;;;34.40;;
58472;SDS011;44775;51.564;5.460;2022-10-31T05:45:17;86.55;;;37.25;;
58472;SDS011;44775;51.564;5.460;2022-10-31T05:48:16;85.88;;;35.58;;
58472;SDS011;44775;51.564;5.460;2022-10-31T05:50:35;77.40;;;35.17;;
58472;SDS011;44775;51.564;5.460;2022-10-31T05:53:01;76.03;;;34.05;;
58472;SDS011;44775;51.564;5.460;2022-10-31T05:55:28;82.47;;;35.70;;
58472;SDS011;44775;51.564;5.460;2022-10-31T05:57:55;94.45;;;36.40;;
58472;SDS011;44775;51.564;5.460;2022-10-31T06:00:21;82.82;;;35.20;;
58472;SDS011;44775;51.564;5.460;2022-10-31T06:02:47;83.10;;;35.85;;
58472;SDS011;44775;51.564;5.460;2022-10-31T06:05:12;81.85;;;35.35;;
58472;SDS011;44775;51.564;5.460;2022-10-31T06:07:38;86.53;;;35.05;;
58472;SDS011;44775;51.564;5.460;2022-10-31T06:10:04;86.03;;;35.55;;
58472;SDS011;44775;51.564;5.460;2022-10-31T06:12:31;114.47;;;36.70;;
58472;SDS011;44775;51.564;5.460;2022-10-31T06:14:56;91.95;;;35.90;;
58472;SDS011;44775;51.564;5.460;2022-10-31T06:17:22;74.03;;;33.72;;
58472;SDS011;44775;51.564;5.460;2022-10-31T06:19:47;80.40;;;33.00;;
58472;SDS011;44775;51.564;5.460;2022-10-31T06:22:13;72.75;;;32.67;;
58472;SDS011;44775;51.564;5.460;2022-10-31T06:24:39;76.68;;;33.13;;
58472;SDS011;44775;51.564;5.460;2022-10-31T06:27:04;78.63;;;31.33;;
58472;SDS011;44775;51.564;5.460;2022-10-31T06:29:30;115.38;;;36.17;;
58472;SDS011;44775;51.564;5.460;2022-10-31T06:31:56;130.27;;;36.50;;
58472;SDS011;44775;51.564;5.460;2022-10-31T06:34:21;491.45;;;42.97;;
58472;SDS011;44775;51.564;5.460;2022-10-31T06:36:47;96.93;;;35.13;;
58472;SDS011;44775;51.564;5.460;2022-10-31T06:39:13;188.35;;;38.33;;
58472;SDS011;44775;51.564;5.460;2022-10-31T06:41:38;1487.30;;;75.70;;
58472;SDS011;44775;51.564;5.460;2022-10-31T06:44:05;139.85;;;36.90;;
58472;SDS011;44775;51.564;5.460;2022-10-31T06:46:31;129.73;;;36.00;;
58472;SDS011;44775;51.564;5.460;2022-10-31T06:48:56;106.68;;;33.97;;
58472;SDS011;44775;51.564;5.460;2022-10-31T06:51:22;113.97;;;37.45;;
58472;SDS011;44775;51.564;5.460;2022-10-31T06:53:47;125.57;;;38.03;;
58472;SDS011;44775;51.564;5.460;2022-10-31T06:56:13;506.90;;;49.55;;
58472;SDS011;44775;51.564;5.460;2022-10-31T06:58:38;95.90;;;39.00;;
58472;SDS011;44775;51.564;5.460;2022-10-31T07:01:04;405.05;;;45.85;;
58472;SDS011;44775;51.564;5.460;2022-10-31T07:03:29;81.60;;;35.47;;
58472;SDS011;44775;51.564;5.460;2022-10-31T07:05:55;89.75;;;37.80;;
58472;SDS011;44775;51.564;5.460;2022-10-31T07:08:21;91.50;;;38.83;;
58472;SDS011;44775;51.564;5.460;2022-10-31T07:10:54;85.10;;;37.15;;
58472;SDS011;44775;51.564;5.460;2022-10-31T07:13:21;84.88;;;37.90;;
58472;SDS011;44775;51.564;5.460;2022-10-31T07:15:50;83.28;;;38.50;;
58472;SDS011;44775;51.564;5.460;2022-10-31T07:18:17;88.13;;;38.50;;
58472;SDS011;44775;51.564;5.460;2022-10-31T07:20:43;91.45;;;39.05;;
58472;SDS011;44775;51.564;5.460;2022-10-31T07:23:09;89.10;;;40.50;;
58472;SDS011;44775;51.564;5.460;2022-10-31T07:25:36;90.63;;;40.05;;
58472;SDS011;44775;51.564;5.460;2022-10-31T07:28:03;99.32;;;42.47;;
58472;SDS011;44775;51.564;5.460;2022-10-31T07:30:28;96.25;;;39.55;;
58472;SDS011;44775;51.564;5.460;2022-10-31T07:32:54;97.25;;;41.03;;
58472;SDS011;44775;51.564;5.460;2022-10-31T07:35:23;94.00;;;41.72;;
58472;SDS011;44775;51.564;5.460;2022-10-31T07:37:50;88.25;;;40.03;;
58472;SDS011;44775;51.564;5.460;2022-10-31T07:40:17;86.30;;;40.05;;
58472;SDS011;44775;51.564;5.460;2022-10-31T07:42:45;89.35;;;39.95;;
58472;SDS011;44775;51.564;5.460;2022-10-31T07:45:13;90.47;;;39.08;;
58472;SDS011;44775;51.564;5.460;2022-10-31T07:47:42;77.70;;;38.67;;
58472;SDS011;44775;51.564;5.460;2022-10-31T07:50:10;73.65;;;37.88;;
58472;SDS011;44775;51.564;5.460;2022-10-31T07:52:37;77.90;;;38.75;;
58472;SDS011;44775;51.564;5.460;2022-10-31T07:55:03;78.07;;;40.30;;
58472;SDS011;44775;51.564;5.460;2022-10-31T07:57:30;88.22;;;43.13;;
58472;SDS011;44775;51.564;5.460;2022-10-31T07:59:55;93.25;;;42.85;;
58472;SDS011;44775;51.564;5.460;2022-10-31T08:02:21;90.35;;;44.13;;
58472;SDS011;44775;51.564;5.460;2022-10-31T08:04:46;100.35;;;47.13;;
58472;SDS011;44775;51.564;5.460;2022-10-31T08:07:12;101.25;;;46.75;;
58472;SDS011;44775;51.564;5.460;2022-10-31T08:09:37;106.55;;;49.88;;
58472;SDS011;44775;51.564;5.460;2022-10-31T08:12:03;94.43;;;45.95;;
58472;SDS011;44775;51.564;5.460;2022-10-31T08:14:29;108.00;;;50.15;;
58472;SDS011;44775;51.564;5.460;2022-10-31T08:16:54;100.50;;;48.20;;
58472;SDS011;44775;51.564;5.460;2022-10-31T08:19:19;107.47;;;47.03;;
58472;SDS011;44775;51.564;5.460;2022-10-31T08:21:45;103.18;;;49.25;;
58472;SDS011;44775;51.564;5.460;2022-10-31T08:24:11;109.85;;;49.80;;
58472;SDS011;44775;51.564;5.460;2022-10-31T08:26:36;108.65;;;50.40;;
58472;SDS011;44775;51.564;5.460;2022-10-31T08:29:02;93.18;;;47.03;;
58472;SDS011;44775;51.564;5.460;2022-10-31T08:31:28;89.55;;;44.78;;
58472;SDS011;44775;51.564;5.460;2022-10-31T08:33:54;89.60;;;46.38;;
58472;SDS011;44775;51.564;5.460;2022-10-31T08:36:20;91.47;;;46.60;;
58472;SDS011;44775;51.564;5.460;2022-10-31T08:38:46;82.07;;;42.80;;
58472;SDS011;44775;51.564;5.460;2022-10-31T08:41:12;89.15;;;45.60;;
58472;SDS011;44775;51.564;5.460;2022-10-31T08:43:38;87.28;;;45.90;;
58472;SDS011;44775;51.564;5.460;2022-10-31T08:46:03;73.25;;;41.55;;
58472;SDS011;44775;51.564;5.460;2022-10-31T08:48:29;71.78;;;38.55;;
58472;SDS011;44775;51.564;5.460;2022-10-31T08:50:56;61.00;;;35.95;;
58472;SDS011;44775;51.564;5.460;2022-10-31T08:53:23;62.78;;;37.53;;
58472;SDS011;44775;51.564;5.460;2022-10-31T08:55:49;64.25;;;35.85;;
58472;SDS011;44775;51.564;5.460;2022-10-31T08:58:16;60.35;;;36.05;;
58472;SDS011;44775;51.564;5.460;2022-10-31T09:00:43;62.60;;;36.30;;
58472;SDS011;44775;51.564;5.460;2022-10-31T09:03:14;62.10;;;37.47;;
58472;SDS011;44775;51.564;5.460;2022-10-31T09:05:41;59.72;;;35.78;;
58472;SDS011;44775;51.564;5.460;2022-10-31T09:08:07;61.13;;;37.00;;
58472;SDS011;44775;51.564;5.460;2022-10-31T09:10:34;60.20;;;36.05;;
58472;SDS011;44775;51.564;5.460;2022-10-31T09:13:08;57.85;;;35.92;;
58472;SDS011;44775;51.564;5.460;2022-10-31T09:15:36;59.40;;;35.85;;
58472;SDS011;44775;51.564;5.460;2022-10-31T09:18:04;60.60;;;35.28;;
58472;SDS011;44775;51.564;5.460;2022-10-31T09:20:30;59.65;;;36.22;;
58472;SDS011;44775;51.564;5.460;2022-10-31T09:22:58;56.70;;;34.42;;
58472;SDS011;44775;51.564;5.460;2022-10-31T09:25:28;58.35;;;35.30;;
58472;SDS011;44775;51.564;5.460;2022-10-31T09:27:57;54.60;;;33.70;;
58472;SDS011;44775;51.564;5.460;2022-10-31T09:30:24;51.63;;;31.75;;
58472;SDS011;44775;51.564;5.460;2022-10-31T09:32:54;49.42;;;32.55;;
58472;SDS011;44775;51.564;5.460;2022-10-31T09:35:23;57.40;;;34.25;;
58472;SDS011;44775;51.564;5.460;2022-10-31T09:37:56;56.55;;;34.00;;
58472;SDS011;44775;51.564;5.460;2022-10-31T09:41:07;51.70;;;31.90;;
58472;SDS011;44775;51.564;5.460;2022-10-31T09:43:23;44.50;;;29.10;;
58472;SDS011;44775;51.564;5.460;2022-10-31T09:48:48;50.33;;;29.00;;
58472;SDS011;44775;51.564;5.460;2022-10-31T09:51:53;46.33;;;28.98;;
58472;SDS011;44775;51.564;5.460;2022-10-31T09:54:16;48.78;;;28.60;;
58472;SDS011;44775;51.564;5.460;2022-10-31T09:56:45;49.55;;;29.08;;
58472;SDS011;44775;51.564;5.460;2022-10-31T10:02:03;48.97;;;29.48;;
58472;SDS011;44775;51.564;5.460;2022-10-31T10:10:14;46.63;;;29.20;;
58472;SDS011;44775;51.564;5.460;2022-10-31T10:15:38;53.75;;;30.08;;
58472;SDS011;44775;51.564;5.460;2022-10-31T10:26:34;39.95;;;26.33;;
58472;SDS011;44775;51.564;5.460;2022-10-31T10:29:14;40.30;;;26.50;;
58472;SDS011;44775;51.564;5.460;2022-10-31T10:31:49;40.10;;;26.70;;
58472;SDS011;44775;51.564;5.460;2022-10-31T10:34:22;43.30;;;27.35;;
58472;SDS011;44775;51.564;5.460;2022-10-31T10:36:57;38.88;;;26.20;;
58472;SDS011;44775;51.564;5.460;2022-10-31T10:39:46;45.47;;;27.98;;
58472;SDS011;44775;51.564;5.460;2022-10-31T10:42:16;45.40;;;27.55;;
58472;SDS011;44775;51.564;5.460;2022-10-31T10:45:20;43.10;;;27.00;;
58472;SDS011;44775;51.564;5.460;2022-10-31T10:48:11;43.38;;;28.30;;
58472;SDS011;44775;51.564;5.460;2022-10-31T10:50:44;50.53;;;28.10;;
58472;SDS011;44775;51.564;5.460;2022-10-31T10:56:30;45.28;;;28.42;;
58472;SDS011;44775;51.564;5.460;2022-10-31T10:59:06;42.40;;;27.48;;
58472;SDS011;44775;51.564;5.460;2022-10-31T11:01:36;49.55;;;28.02;;
58472;SDS011;44775;51.564;5.460;2022-10-31T11:04:07;49.33;;;27.58;;
58472;SDS011;44775;51.564;5.460;2022-10-31T11:07:00;45.20;;;27.73;;
58472;SDS011;44775;51.564;5.460;2022-10-31T11:09:28;42.80;;;26.23;;
58472;SDS011;44775;51.564;5.460;2022-10-31T11:11:54;44.05;;;26.67;;
58472;SDS011;44775;51.564;5.460;2022-10-31T11:14:21;41.53;;;27.80;;
58472;SDS011;44775;51.564;5.460;2022-10-31T11:16:48;44.40;;;28.33;;
58472;SDS011;44775;51.564;5.460;2022-10-31T11:19:19;46.33;;;28.45;;
58472;SDS011;44775;51.564;5.460;2022-10-31T11:21:48;42.70;;;26.67;;
58472;SDS011;44775;51.564;5.460;2022-10-31T11:24:15;44.08;;;28.35;;
58472;SDS011;44775;51.564;5.460;2022-10-31T11:29:16;48.15;;;27.67;;
58472;SDS011;44775;51.564;5.460;2022-10-31T11:31:46;49.25;;;27.92;;
58472;SDS011;44775;51.564;5.460;2022-10-31T11:34:26;49.70;;;27.88;;
58472;SDS011;44775;51.564;5.460;2022-10-31T11:37:13;46.72;;;27.42;;
58472;SDS011;44775;51.564;5.460;2022-10-31T11:39:43;42.28;;;26.92;;
58472;SDS011;44775;51.564;5.460;2022-10-31T11:42:18;49.33;;;28.48;;
58472;SDS011;44775;51.564;5.460;2022-10-31T11:44:48;50.75;;;28.35;;
58472;SDS011;44775;51.564;5.460;2022-10-31T11:47:16;53.40;;;28.70;;
58472;SDS011;44775;51.564;5.460;2022-10-31T11:49:47;50.92;;;27.90;;
58472;SDS011;44775;51.564;5.460;2022-10-31T11:52:20;42.15;;;26.80;;
58472;SDS011;44775;51.564;5.460;2022-10-31T11:55:01;41.28;;;26.40;;
58472;SDS011;44775;51.564;5.460;2022-10-31T11:57:43;42.42;;;26.42;;
58472;SDS011;44775;51.564;5.460;2022-10-31T12:00:23;40.80;;;25.42;;
58472;SDS011;44775;51.564;5.460;2022-10-31T12:06:23;39.92;;;25.13;;
58472;SDS011;44775;51.564;5.460;2022-10-31T12:08:54;42.83;;;26.25;;
58472;SDS011;44775;51.564;5.460;2022-10-31T12:14:03;41.10;;;24.48;;
58472;SDS011;44775;51.564;5.460;2022-10-31T12:21:38;36.80;;;23.38;;
58472;SDS011;44775;51.564;5.460;2022-10-31T12:38:10;41.08;;;23.33;;
58472;SDS011;44775;51.564;5.460;2022-10-31T12:57:26;31.75;;;19.58;;
58472;SDS011;44775;51.564;5.460;2022-10-31T13:02:35;35.65;;;20.08;;
58472;SDS011;44775;51.564;5.460;2022-10-31T13:13:31;29.77;;;17.67;;
58472;SDS011;44775;51.564;5.460;2022-10-31T13:16:03;30.90;;;17.80;;
58472;SDS011;44775;51.564;5.460;2022-10-31T13:18:40;35.10;;;18.55;;
58472;SDS011;44775;51.564;5.460;2022-10-31T13:21:12;33.22;;;19.25;;
58472;SDS011;44775;51.564;5.460;2022-10-31T13:23:44;32.88;;;17.38;;
58472;SDS011;44775;51.564;5.460;2022-10-31T13:26:13;25.42;;;15.82;;
58472;SDS011;44775;51.564;5.460;2022-10-31T13:31:51;27.67;;;15.95;;
58472;SDS011;44775;51.564;5.460;2022-10-31T13:34:19;26.42;;;16.42;;
58472;SDS011;44775;51.564;5.460;2022-10-31T13:36:48;26.60;;;15.98;;
58472;SDS011;44775;51.564;5.460;2022-10-31T13:45:18;23.80;;;13.70;;
58472;SDS011;44775;51.564;5.460;2022-10-31T13:47:58;22.80;;;13.00;;
58472;SDS011;44775;51.564;5.460;2022-10-31T13:50:57;25.00;;;13.30;;
58472;SDS011;44775;51.564;5.460;2022-10-31T13:58:32;28.08;;;12.43;;
58472;SDS011;44775;51.564;5.460;2022-10-31T14:03:39;25.47;;;12.60;;
58472;SDS011;44775;51.564;5.460;2022-10-31T14:06:05;23.77;;;13.00;;
58472;SDS011;44775;51.564;5.460;2022-10-31T14:08:34;25.48;;;12.90;;
58472;SDS011;44775;51.564;5.460;2022-10-31T14:11:02;26.65;;;12.57;;
58472;SDS011;44775;51.564;5.460;2022-10-31T14:16:23;24.02;;;13.70;;
58472;SDS011;44775;51.564;5.460;2022-10-31T14:18:57;23.98;;;12.75;;
58472;SDS011;44775;51.564;5.460;2022-10-31T14:23:49;24.60;;;13.85;;
58472;SDS011;44775;51.564;5.460;2022-10-31T14:34:20;28.90;;;15.90;;
58472;SDS011;44775;51.564;5.460;2022-10-31T14:42:27;26.45;;;14.73;;
58472;SDS011;44775;51.564;5.460;2022-10-31T14:55:56;32.38;;;15.52;;
58472;SDS011;44775;51.564;5.460;2022-10-31T14:58:33;24.38;;;14.13;;
58472;SDS011;44775;51.564;5.460;2022-10-31T15:01:05;29.38;;;15.32;;
58472;SDS011;44775;51.564;5.460;2022-10-31T15:03:33;24.15;;;14.55;;
58472;SDS011;44775;51.564;5.460;2022-10-31T15:06:11;22.63;;;14.90;;
58472;SDS011;44775;51.564;5.460;2022-10-31T15:08:39;24.00;;;14.23;;
58472;SDS011;44775;51.564;5.460;2022-10-31T15:13:45;24.83;;;14.55;;
58472;SDS011;44775;51.564;5.460;2022-10-31T15:16:13;28.77;;;14.85;;
58472;SDS011;44775;51.564;5.460;2022-10-31T15:18:46;25.50;;;14.95;;
58472;SDS011;44775;51.564;5.460;2022-10-31T15:21:14;28.17;;;14.80;;
58472;SDS011;44775;51.564;5.460;2022-10-31T15:23:42;30.80;;;15.65;;
58472;SDS011;44775;51.564;5.460;2022-10-31T15:26:11;23.90;;;14.75;;
58472;SDS011;44775;51.564;5.460;2022-10-31T15:28:42;25.88;;;14.00;;
58472;SDS011;44775;51.564;5.460;2022-10-31T15:31:16;26.58;;;14.98;;
58472;SDS011;44775;51.564;5.460;2022-10-31T15:33:42;28.23;;;15.68;;
58472;SDS011;44775;51.564;5.460;2022-10-31T15:36:20;28.85;;;14.63;;
58472;SDS011;44775;51.564;5.460;2022-10-31T15:38:47;28.38;;;15.55;;
58472;SDS011;44775;51.564;5.460;2022-10-31T15:41:22;26.60;;;14.48;;
58472;SDS011;44775;51.564;5.460;2022-10-31T15:44:12;29.67;;;15.23;;
58472;SDS011;44775;51.564;5.460;2022-10-31T15:46:51;28.30;;;14.75;;
58472;SDS011;44775;51.564;5.460;2022-10-31T15:52:05;24.58;;;14.02;;
58472;SDS011;44775;51.564;5.460;2022-10-31T15:54:44;24.65;;;14.93;;
58472;SDS011;44775;51.564;5.460;2022-10-31T15:57:15;31.65;;;15.50;;
58472;SDS011;44775;51.564;5.460;2022-10-31T15:59:42;24.90;;;14.93;;
58472;SDS011;44775;51.564;5.460;2022-10-31T16:02:12;24.90;;;15.48;;
58472;SDS011;44775;51.564;5.460;2022-10-31T16:05:45;28.25;;;15.30;;
58472;SDS011;44775;51.564;5.460;2022-10-31T16:07:51;30.13;;;16.00;;
58472;SDS011;44775;51.564;5.460;2022-10-31T16:13:37;30.83;;;16.35;;
58472;SDS011;44775;51.564;5.460;2022-10-31T16:16:13;33.00;;;15.88;;
58472;SDS011;44775;51.564;5.460;2022-10-31T16:18:41;24.60;;;15.27;;
58472;SDS011;44775;51.564;5.460;2022-10-31T16:21:07;26.85;;;15.98;;
58472;SDS011;44775;51.564;5.460;2022-10-31T16:23:34;32.40;;;16.60;;
58472;SDS011;44775;51.564;5.460;2022-10-31T16:26:06;34.60;;;15.85;;
58472;SDS011;44775;51.564;5.460;2022-10-31T16:28:33;28.92;;;15.30;;
58472;SDS011;44775;51.564;5.460;2022-10-31T16:30:59;26.50;;;15.90;;
58472;SDS011;44775;51.564;5.460;2022-10-31T16:36:01;32.42;;;14.70;;
58472;SDS011;44775;51.564;5.460;2022-10-31T16:38:52;24.80;;;13.88;;
58472;SDS011;44775;51.564;5.460;2022-10-31T16:41:18;25.73;;;15.23;;
58472;SDS011;44775;51.564;5.460;2022-10-31T16:43:44;25.85;;;14.82;;
58472;SDS011;44775;51.564;5.460;2022-10-31T16:46:12;29.40;;;15.40;;
58472;SDS011;44775;51.564;5.460;2022-10-31T16:48:40;27.65;;;15.55;;
58472;SDS011;44775;51.564;5.460;2022-10-31T16:51:08;29.30;;;15.43;;
58472;SDS011;44775;51.564;5.460;2022-10-31T16:53:33;29.17;;;16.48;;
58472;SDS011;44775;51.564;5.460;2022-10-31T16:56:01;34.70;;;21.38;;
58472;SDS011;44775;51.564;5.460;2022-10-31T16:58:28;43.72;;;27.25;;
58472;SDS011;44775;51.564;5.460;2022-10-31T17:00:57;41.50;;;24.13;;
58472;SDS011;44775;51.564;5.460;2022-10-31T17:03:23;28.80;;;19.00;;
58472;SDS011;44775;51.564;5.460;2022-10-31T17:05:49;26.08;;;15.48;;
58472;SDS011;44775;51.564;5.460;2022-10-31T17:08:15;25.52;;;14.88;;
58472;SDS011;44775;51.564;5.460;2022-10-31T17:10:40;21.95;;;12.93;;
58472;SDS011;44775;51.564;5.460;2022-10-31T17:13:13;19.43;;;11.73;;
58472;SDS011;44775;51.564;5.460;2022-10-31T17:15:44;19.40;;;12.48;;
58472;SDS011;44775;51.564;5.460;2022-10-31T17:18:15;22.05;;;12.23;;
58472;SDS011;44775;51.564;5.460;2022-10-31T17:20:42;23.83;;;11.63;;
58472;SDS011;44775;51.564;5.460;2022-10-31T17:23:09;20.88;;;11.52;;
58472;SDS011;44775;51.564;5.460;2022-10-31T17:25:36;21.38;;;10.93;;
58472;SDS011;44775;51.564;5.460;2022-10-31T17:28:01;22.83;;;11.00;;
58472;SDS011;44775;51.564;5.460;2022-10-31T17:30:27;22.15;;;11.40;;
58472;SDS011;44775;51.564;5.460;2022-10-31T17:32:53;22.23;;;11.10;;